Aeroporto :
LOGIN :

Iscrizione | Disclaimer

   EN    FR    IT 

 










Sommario :    VFR   VFR Marginale   IFR   IFR Intensivo   IFR Molto Intensivo
Visibilità : 
Base nubi : 
>= 8 km
>= 3000ft
5 / 8 km
1000 / 3000 ft
1500m / 5 km
500 / 1000 ft
800 / 1500m
200 / 500 ft
< 800m
< 200 ft
Simboli :   Temporali  Nebbia  Neve Forte  Precipitazioni Forti  Vento > 20 kt
SIGMETs :   Varie  Temporali  Ghiacco  Turbolenza  Onda orograficha  Ceneri Vulcaniche






- Altitudine del aeroporto : 74 ft
- Codice IATA : NDZ


ETMN - Cuxhaven Nordholz Sea AB

ULTIMO METAR :
  • 260907Z 27004KT 8000 FEW005 SCT022 BKN032 09/08 Q1018 BLU BLU TEMPO GRN

METARs OBSOLETI :
  • 260848Z 27003KT 3700 -DZ BR FEW003 SCT008 BKN021 09/08 Q1018 GRN GRN BECMG BLU
  • 260831Z 26004KT 1800 R26/3800D BR SCT002 BKN009 09/08 Q1018 YLO YLO TEMPO RED
  • 260720Z 26008KT 1100 R26/3800N -DZRA BR BKN001 09/08 Q1017 RED YLO TEMPO RED
  • 260631Z 24008KT 1500 R26/4800N -DZ BR OVC001 08/08 Q1017 RED YLO TEMPO RED
  • 260620Z 23009KT 2000 -DZ BR OVC001 08/08 Q1017 RED YLO TEMPO RED

TAF TAF ETMN
Valido dal 26 a 09 ore il 26 a 18 ore UTC


260827Z 2609/2618 26005KT 1800 -DZ BKN001 BKN008
BECMG 2609/2610 25005KT 3000 BR SCT002 BKN010 BKN035
BECMG 2610/2612 26005KT 8000 NSW SCT010 BKN040



MetMap, La meteo Aeronautica in un colpo d'occhio ! - Copyright ORBIFLY Dicembre 2007 - Disclaimer

ORBIFLY MET'MAP TEAM :

Programmazione e sviluppo : Alexandra Zaïnal
Concezione : Baudouin d'Aumeries
Aiuto per la programmazione : Marc-Olivier Méhu
Supporto tecnico e logistico : Manuel Goepfert
Aiuto per la traduzione : Arnaldo La Scala

Contatto : metmap@orbifly.com




FONTI E CREDITI :

   NOAA